createdAt,value
2018-01-13T00:00:29.554Z,4.30
2018-01-13T00:01:34.112Z,4.30
2018-01-13T00:02:38.704Z,4.30
2018-01-13T00:03:42.929Z,4.30
2018-01-13T00:04:47.890Z,4.20
2018-01-13T00:05:52.096Z,4.20
2018-01-13T00:06:57.139Z,4.20
2018-01-13T00:08:01.589Z,4.20
2018-01-13T00:09:06.806Z,4.10
2018-01-13T00:10:11.012Z,4.20
2018-01-13T00:11:16.020Z,4.10
2018-01-13T00:12:20.308Z,4.10
2018-01-13T00:13:24.526Z,4.10
2018-01-13T00:14:29.930Z,4.10
2018-01-13T00:15:34.662Z,4.10
2018-01-13T00:16:39.630Z,4.10
2018-01-13T00:17:43.865Z,4.10
2018-01-13T00:18:48.090Z,4.10
2018-01-13T00:19:51.564Z,4.10
2018-01-13T00:20:57.983Z,4.10
2018-01-13T00:22:02.522Z,4.00
2018-01-13T00:23:07.387Z,4.10
2018-01-13T00:24:11.575Z,4.00
2018-01-13T00:25:15.760Z,4.00
2018-01-13T00:26:19.930Z,4.00
2018-01-13T00:27:24.197Z,4.00
2018-01-13T00:28:29.393Z,4.10
2018-01-13T00:29:35.353Z,4.00
2018-01-13T00:30:40.336Z,4.10
2018-01-13T00:31:44.515Z,4.10
2018-01-13T00:32:48.692Z,4.10
2018-01-13T00:33:53.716Z,4.10
2018-01-13T00:34:58.987Z,4.10
2018-01-13T00:36:05.344Z,4.10
2018-01-13T00:37:09.773Z,4.10
2018-01-13T00:38:13.957Z,4.10
2018-01-13T00:39:18.203Z,4.10
2018-01-13T00:40:22.465Z,4.10
2018-01-13T00:41:28.425Z,4.20
2018-01-13T00:42:33.059Z,4.10
2018-01-13T00:43:37.587Z,4.10
2018-01-13T00:44:41.799Z,4.10
2018-01-13T00:45:46.043Z,4.10
2018-01-13T00:46:50.228Z,4.10
2018-01-13T00:47:55.083Z,4.10
2018-01-13T00:49:00.170Z,4.10
2018-01-13T00:50:05.258Z,4.10
2018-01-13T00:51:10.279Z,4.10
2018-01-13T00:52:14.454Z,4.10
2018-01-13T00:53:18.704Z,4.10
2018-01-13T00:54:22.887Z,4.10
2018-01-13T00:55:27.374Z,4.20
2018-01-13T00:56:31.860Z,4.10
2018-01-13T00:57:36.929Z,4.00
2018-01-13T00:58:41.238Z,4.10
2018-01-13T00:59:45.453Z,4.10
2018-01-13T01:00:49.665Z,4.10
2018-01-13T01:01:53.844Z,4.10
2018-01-13T01:03:00.533Z,4.10
2018-01-13T01:04:04.870Z,4.10
2018-01-13T01:05:09.379Z,4.10
2018-01-13T01:06:13.587Z,4.10
2018-01-13T01:07:17.855Z,4.10
2018-01-13T01:08:22.073Z,4.10
2018-01-13T01:09:27.960Z,4.10
2018-01-13T01:10:32.447Z,4.10
2018-01-13T01:11:37.048Z,4.10
2018-01-13T01:12:42.096Z,4.10
2018-01-13T01:13:47.072Z,4.10
2018-01-13T01:14:51.294Z,4.10
2018-01-13T01:15:55.684Z,4.10
2018-01-13T01:17:01.738Z,4.10
2018-01-13T01:18:07.663Z,4.10
2018-01-13T01:19:12.612Z,4.10
2018-01-13T01:20:16.821Z,4.10
2018-01-13T01:21:21.028Z,4.10
2018-01-13T01:22:25.510Z,4.10
2018-01-13T01:23:31.003Z,4.10
2018-01-13T01:24:35.315Z,4.10
2018-01-13T01:25:39.597Z,4.00
2018-01-13T01:26:44.564Z,4.00
2018-01-13T01:27:48.779Z,4.00
2018-01-13T01:28:53.134Z,4.10
2018-01-13T01:29:59.544Z,4.10
2018-01-13T01:31:03.972Z,4.10
2018-01-13T01:32:08.272Z,4.10
2018-01-13T01:33:12.525Z,4.10
2018-01-13T01:34:16.759Z,4.00
2018-01-13T01:35:21.736Z,4.10
2018-01-13T01:36:27.449Z,4.10
2018-01-13T01:37:32.635Z,4.10
2018-01-13T01:38:37.147Z,4.10
2018-01-13T01:39:41.318Z,4.20
2018-01-13T01:40:45.526Z,4.10
2018-01-13T01:41:49.758Z,4.10
2018-01-13T01:42:53.941Z,4.00
2018-01-13T01:43:58.849Z,4.00
2018-01-13T01:45:03.949Z,4.00
2018-01-13T01:46:08.956Z,4.10
2018-01-13T01:47:13.247Z,4.10
2018-01-13T01:48:27.579Z,4.10
2018-01-13T01:49:32.724Z,4.10
2018-01-13T01:50:38.207Z,4.20
2018-01-13T01:51:42.561Z,4.20
2018-01-13T01:52:47.578Z,4.10
2018-01-13T01:53:52.608Z,4.10
2018-01-13T01:54:57.075Z,4.10
2018-01-13T01:56:02.466Z,4.10
2018-01-13T01:57:07.015Z,4.10
2018-01-13T01:58:11.269Z,4.10
2018-01-13T01:59:15.538Z,4.20
2018-01-13T02:00:19.761Z,4.20
2018-01-13T02:01:23.973Z,4.20
2018-01-13T02:02:29.448Z,4.10
2018-01-13T02:03:35.069Z,4.10
2018-01-13T02:04:40.085Z,4.10
2018-01-13T02:05:44.393Z,4.10
2018-01-13T02:06:48.610Z,4.10
2018-01-13T02:07:52.824Z,4.10
2018-01-13T02:08:58.022Z,4.10
2018-01-13T02:10:04.416Z,4.10
2018-01-13T02:11:09.601Z,4.10
2018-01-13T02:12:13.780Z,4.10
2018-01-13T02:13:17.964Z,4.10
2018-01-13T02:14:22.191Z,4.10
2018-01-13T02:15:28.356Z,4.10
2018-01-13T02:16:34.014Z,4.20
2018-01-13T02:17:38.244Z,4.20
2018-01-13T02:18:42.455Z,4.20
2018-01-13T02:19:46.698Z,4.20
2018-01-13T02:20:50.904Z,4.10
2018-01-13T02:21:56.953Z,4.10
2018-01-13T02:23:02.279Z,4.20
2018-01-13T02:24:06.689Z,4.10
2018-01-13T02:25:10.922Z,4.20
2018-01-13T02:26:15.896Z,4.30
2018-01-13T02:27:20.106Z,4.30
2018-01-13T02:28:24.517Z,4.30
2018-01-13T02:29:30.159Z,4.20
2018-01-13T02:30:34.489Z,4.20
2018-01-13T02:31:38.811Z,4.30
2018-01-13T02:32:43.026Z,4.30
2018-01-13T02:33:47.357Z,4.20
2018-01-13T02:34:52.313Z,4.20
2018-01-13T02:35:58.363Z,4.20
2018-01-13T02:37:04.235Z,4.20
2018-01-13T02:38:08.631Z,4.20
2018-01-13T02:39:12.836Z,4.20
2018-01-13T02:40:17.035Z,4.20
2018-01-13T02:41:21.975Z,4.10
2018-01-13T02:42:27.595Z,4.10
2018-01-13T02:43:32.105Z,4.10
2018-01-13T02:44:37.173Z,4.20
2018-01-13T02:45:41.388Z,4.20
2018-01-13T02:46:45.562Z,4.20
2018-01-13T02:47:51.028Z,4.20
2018-01-13T02:48:56.100Z,4.20
2018-01-13T02:50:01.186Z,4.20
2018-01-13T02:51:06.425Z,4.30
2018-01-13T02:52:10.687Z,4.20
2018-01-13T02:53:14.921Z,4.10
2018-01-13T02:54:19.867Z,4.20
2018-01-13T02:55:24.081Z,4.20
2018-01-13T02:56:29.830Z,4.20
2018-01-13T02:57:34.201Z,4.20
2018-01-13T02:58:38.957Z,4.20
2018-01-13T02:59:43.178Z,4.20
2018-01-13T03:00:47.390Z,4.20
2018-01-13T03:01:51.589Z,4.20
2018-01-13T03:02:58.079Z,4.20
2018-01-13T03:04:02.421Z,4.20
2018-01-13T03:05:08.395Z,4.20
2018-01-13T03:06:13.072Z,4.20
2018-01-13T03:07:18.183Z,4.20
2018-01-13T03:08:22.397Z,4.20
2018-01-13T03:09:27.268Z,4.20
2018-01-13T03:10:32.979Z,4.20
2018-01-13T03:11:37.293Z,4.30
2018-01-13T03:12:42.246Z,4.20
2018-01-13T03:13:46.444Z,4.30
2018-01-13T03:14:51.447Z,4.20
2018-01-13T03:15:56.100Z,4.20
2018-01-13T03:17:00.838Z,4.20
2018-01-13T03:18:05.261Z,4.20
2018-01-13T03:19:09.478Z,4.20
2018-01-13T03:20:13.735Z,4.30
2018-01-13T03:21:18.709Z,4.20
2018-01-13T03:22:22.944Z,4.20
2018-01-13T03:23:30.525Z,4.20
2018-01-13T03:24:35.435Z,4.20
2018-01-13T03:25:39.667Z,4.20
2018-01-13T03:26:43.872Z,4.20
2018-01-13T03:27:48.087Z,4.20
2018-01-13T03:28:52.271Z,4.30
2018-01-13T03:29:57.099Z,4.20
2018-01-13T03:31:01.529Z,4.30
2018-01-13T03:32:05.918Z,4.20
2018-01-13T03:33:10.165Z,4.30
2018-01-13T03:34:14.382Z,4.30
2018-01-13T03:35:18.612Z,4.30
2018-01-13T03:36:22.816Z,4.20
2018-01-13T03:37:29.939Z,4.30
2018-01-13T03:38:34.837Z,4.20
2018-01-13T03:39:39.237Z,4.20
2018-01-13T03:40:43.499Z,4.30
2018-01-13T03:41:47.741Z,4.30
2018-01-13T03:42:51.927Z,4.30
2018-01-13T03:43:56.273Z,4.30
2018-01-13T03:45:01.437Z,4.30
2018-01-13T03:46:07.084Z,4.30
2018-01-13T03:47:12.085Z,4.30
2018-01-13T03:48:16.500Z,4.30
2018-01-13T03:49:20.712Z,4.30
2018-01-13T03:50:25.534Z,4.20
2018-01-13T03:51:31.080Z,4.20
2018-01-13T03:52:35.340Z,4.20
2018-01-13T03:53:39.595Z,4.20
2018-01-13T03:54:43.804Z,4.20
2018-01-13T03:55:48.008Z,4.20
2018-01-13T03:56:52.244Z,4.20
2018-01-13T03:57:57.354Z,4.20
2018-01-13T03:59:01.995Z,4.20
2018-01-13T04:00:06.580Z,4.20
2018-01-13T04:01:10.764Z,4.20
2018-01-13T04:02:14.976Z,4.30
2018-01-13T04:03:19.179Z,4.30
2018-01-13T04:04:24.148Z,4.30
2018-01-13T04:05:28.857Z,4.30
2018-01-13T04:06:33.304Z,4.30
2018-01-13T04:07:38.283Z,4.30
2018-01-13T04:08:42.495Z,4.30
2018-01-13T04:09:46.682Z,4.30
2018-01-13T04:10:51.661Z,4.30
2018-01-13T04:11:56.640Z,4.30
2018-01-13T04:13:01.658Z,4.30
2018-01-13T04:14:07.233Z,4.30
2018-01-13T04:15:11.475Z,4.30
2018-01-13T04:16:15.681Z,4.30
2018-01-13T04:17:19.921Z,4.20
2018-01-13T04:18:24.218Z,4.30
2018-01-13T04:19:28.986Z,4.30
2018-01-13T04:20:34.124Z,4.30
2018-01-13T04:21:38.608Z,4.40
2018-01-13T04:22:42.816Z,4.30
2018-01-13T04:23:47.057Z,4.30
2018-01-13T04:24:52.032Z,4.30
2018-01-13T04:25:56.987Z,4.20
2018-01-13T04:27:01.701Z,4.20
2018-01-13T04:28:07.315Z,4.20
2018-01-13T04:29:11.561Z,4.20
2018-01-13T04:30:15.743Z,4.30
2018-01-13T04:31:19.961Z,4.30
2018-01-13T04:32:24.240Z,4.20
2018-01-13T04:33:30.364Z,4.30
2018-01-13T04:34:34.790Z,4.20
2018-01-13T04:35:39.795Z,4.40
2018-01-13T04:36:44.004Z,4.30
2018-01-13T04:37:48.217Z,4.40
2018-01-13T04:38:52.425Z,4.30
2018-01-13T04:39:59.337Z,4.20
2018-01-13T04:41:03.755Z,4.20
2018-01-13T04:42:08.112Z,4.20
2018-01-13T04:43:12.292Z,4.30
2018-01-13T04:44:16.528Z,4.40
2018-01-13T04:45:20.739Z,4.40
2018-01-13T04:46:27.044Z,4.30
2018-01-13T04:47:31.420Z,4.30
2018-01-13T04:48:36.260Z,4.30
2018-01-13T04:49:40.677Z,4.30
2018-01-13T04:50:44.855Z,4.20
2018-01-13T04:51:49.134Z,4.30
2018-01-13T04:52:54.106Z,4.20
2018-01-13T04:53:59.178Z,4.20
2018-01-13T04:55:03.641Z,4.30
2018-01-13T04:56:09.288Z,4.30
2018-01-13T04:57:13.533Z,4.20
2018-01-13T04:58:17.707Z,4.20
2018-01-13T04:59:21.915Z,4.20
2018-01-13T05:00:26.813Z,4.20
2018-01-13T05:01:31.853Z,4.20
2018-01-13T05:02:38.028Z,4.20
2018-01-13T05:03:42.236Z,4.20
2018-01-13T05:04:46.484Z,4.20
2018-01-13T05:05:50.715Z,4.20
2018-01-13T05:06:56.889Z,4.20
2018-01-13T05:08:01.759Z,4.20
2018-01-13T05:09:06.450Z,4.20
2018-01-13T05:10:10.693Z,4.20
2018-01-13T05:11:14.928Z,4.20
2018-01-13T05:12:19.178Z,4.20
2018-01-13T05:13:24.203Z,4.10
2018-01-13T05:14:29.743Z,4.10
2018-01-13T05:15:35.323Z,4.20
2018-01-13T05:16:39.564Z,4.10
2018-01-13T05:17:43.793Z,4.10
2018-01-13T05:18:48.757Z,4.10
2018-01-13T05:19:52.976Z,4.10
2018-01-13T05:20:59.023Z,4.20
2018-01-13T05:22:03.441Z,4.10
2018-01-13T05:23:08.117Z,4.10
2018-01-13T05:24:12.444Z,4.10
2018-01-13T05:25:17.412Z,4.10
2018-01-13T05:26:21.620Z,4.10
2018-01-13T05:27:28.708Z,4.10
2018-01-13T05:28:33.476Z,4.10
2018-01-13T05:29:38.055Z,4.20
2018-01-13T05:30:42.231Z,4.20
2018-01-13T05:31:46.552Z,4.10
2018-01-13T05:32:50.796Z,4.10
2018-01-13T05:33:55.041Z,4.10
2018-01-13T05:35:00.103Z,4.10
2018-01-13T05:36:04.407Z,4.10
2018-01-13T05:37:08.604Z,4.10
2018-01-13T05:38:13.563Z,4.10
2018-01-13T05:39:17.804Z,4.10
2018-01-13T05:40:22.045Z,4.10
2018-01-13T05:41:27.485Z,4.10
2018-01-13T05:42:32.615Z,4.10
2018-01-13T05:43:37.587Z,4.10
2018-01-13T05:44:41.766Z,4.10
2018-01-13T05:45:46.902Z,4.10
2018-01-13T05:46:51.880Z,4.10
2018-01-13T05:47:56.790Z,4.10
2018-01-13T05:49:01.812Z,4.10
2018-01-13T05:50:05.996Z,4.10
2018-01-13T05:51:10.939Z,4.10
2018-01-13T05:52:15.140Z,4.10
2018-01-13T05:53:19.390Z,4.10
2018-01-13T05:54:23.595Z,4.10
2018-01-13T05:55:27.870Z,4.10
2018-01-13T05:56:32.076Z,4.00
2018-01-13T05:57:36.376Z,4.00
2018-01-13T05:58:40.592Z,4.00
2018-01-13T05:59:44.923Z,4.00
2018-01-13T06:00:49.141Z,4.00
2018-01-13T06:01:53.434Z,4.00
2018-01-13T06:02:59.072Z,4.10
2018-01-13T06:04:04.261Z,4.00
2018-01-13T06:05:08.522Z,4.00
2018-01-13T06:06:13.509Z,4.00
2018-01-13T06:07:17.771Z,4.00
2018-01-13T06:08:22.723Z,4.00
2018-01-13T06:09:27.959Z,4.00
2018-01-13T06:10:33.086Z,4.00
2018-01-13T06:11:37.559Z,4.10
2018-01-13T06:12:42.607Z,4.00
2018-01-13T06:13:47.588Z,4.00
2018-01-13T06:14:51.768Z,4.00
2018-01-13T06:15:57.120Z,4.00
2018-01-13T06:17:02.522Z,4.10
2018-01-13T06:18:06.878Z,4.00
2018-01-13T06:19:11.123Z,4.00
2018-01-13T06:20:15.308Z,4.10
2018-01-13T06:21:19.526Z,4.00
2018-01-13T06:22:23.717Z,4.00
2018-01-13T06:23:28.564Z,4.10
2018-01-13T06:24:32.900Z,4.00
2018-01-13T06:25:37.500Z,4.00
2018-01-13T06:26:41.745Z,4.10
2018-01-13T06:27:46.748Z,4.10
2018-01-13T06:28:51.001Z,4.10
2018-01-13T06:29:55.839Z,4.00
2018-01-13T06:31:00.474Z,4.00
2018-01-13T06:32:04.952Z,4.00
2018-01-13T06:33:10.055Z,4.00
2018-01-13T06:34:14.330Z,4.00
2018-01-13T06:35:18.521Z,4.00
2018-01-13T06:36:22.699Z,4.00
2018-01-13T06:37:28.637Z,4.00
2018-01-13T06:38:33.006Z,4.00
2018-01-13T06:39:38.167Z,4.00
2018-01-13T06:40:42.360Z,4.10
2018-01-13T06:41:46.572Z,4.00
2018-01-13T06:42:50.789Z,4.00
2018-01-13T06:43:55.638Z,4.10
2018-01-13T06:45:02.874Z,4.00
2018-01-13T06:46:07.816Z,4.10
2018-01-13T06:47:12.012Z,4.00
2018-01-13T06:48:16.253Z,4.00
2018-01-13T06:49:20.517Z,4.00
2018-01-13T06:50:24.931Z,4.00
2018-01-13T06:51:30.088Z,4.10
2018-01-13T06:52:34.581Z,4.00
2018-01-13T06:53:38.872Z,4.00
2018-01-13T06:54:43.123Z,4.10
2018-01-13T06:55:47.337Z,4.10
2018-01-13T06:56:51.633Z,4.10
2018-01-13T06:57:56.533Z,4.10
2018-01-13T06:59:01.775Z,4.00
2018-01-13T07:00:06.722Z,4.10
2018-01-13T07:01:10.965Z,4.10
2018-01-13T07:02:15.188Z,4.10
2018-01-13T07:03:19.358Z,4.10
2018-01-13T07:04:24.333Z,4.00
2018-01-13T07:05:28.902Z,4.10
2018-01-13T07:06:33.898Z,4.00
2018-01-13T07:07:38.801Z,4.00
2018-01-13T07:08:43.022Z,4.00
2018-01-13T07:09:47.194Z,4.00
2018-01-13T07:10:51.405Z,4.10
2018-01-13T07:11:56.093Z,4.10
2018-01-13T07:13:00.751Z,4.10
2018-01-13T07:14:05.681Z,4.10
2018-01-13T07:15:09.960Z,4.10
2018-01-13T07:16:14.148Z,4.10
2018-01-13T07:17:18.319Z,4.10
2018-01-13T07:18:22.548Z,4.10
2018-01-13T07:19:27.667Z,4.10
2018-01-13T07:20:33.476Z,4.10
2018-01-13T07:21:37.740Z,4.10
2018-01-13T07:22:41.962Z,4.10
2018-01-13T07:23:46.173Z,4.10
2018-01-13T07:24:50.414Z,4.10
2018-01-13T07:25:54.684Z,4.10
2018-01-13T07:27:00.258Z,4.10
2018-01-13T07:28:06.174Z,4.10
2018-01-13T07:29:10.421Z,4.10
2018-01-13T07:30:14.652Z,4.10
2018-01-13T07:31:19.609Z,4.20
2018-01-13T07:32:23.784Z,4.10
2018-01-13T07:33:28.734Z,4.20
2018-01-13T07:34:33.774Z,4.10
2018-01-13T07:35:38.096Z,4.10
2018-01-13T07:36:42.275Z,4.10
2018-01-13T07:37:47.253Z,4.10
2018-01-13T07:38:51.827Z,4.10
2018-01-13T07:39:57.250Z,4.10
2018-01-13T07:41:02.009Z,4.10
2018-01-13T07:42:06.467Z,4.10
2018-01-13T07:43:10.692Z,4.10
2018-01-13T07:44:14.944Z,4.10
2018-01-13T07:45:19.135Z,4.10
2018-01-13T07:46:24.147Z,4.20
2018-01-13T07:47:28.750Z,4.10
2018-01-13T07:48:34.048Z,4.20
2018-01-13T07:49:38.623Z,4.10
2018-01-13T07:50:42.851Z,4.10
2018-01-13T07:51:47.866Z,4.10
2018-01-13T07:52:52.859Z,4.20
2018-01-13T07:53:57.655Z,4.10
2018-01-13T07:55:03.091Z,4.10
2018-01-13T07:56:07.370Z,4.10
2018-01-13T07:57:12.401Z,4.10
2018-01-13T07:58:17.357Z,4.10
2018-01-13T07:59:21.675Z,4.10
2018-01-13T08:00:26.611Z,4.20
2018-01-13T08:01:31.437Z,4.10
2018-01-13T08:02:35.690Z,4.10
2018-01-13T08:03:40.694Z,4.20
2018-01-13T08:04:44.960Z,4.20
2018-01-13T08:05:49.964Z,4.20
2018-01-13T08:06:55.551Z,4.20
2018-01-13T08:08:01.196Z,4.20
2018-01-13T08:09:05.530Z,4.20
2018-01-13T08:10:09.772Z,4.20
2018-01-13T08:11:13.985Z,4.30
2018-01-13T08:12:18.191Z,4.30
2018-01-13T08:13:22.390Z,4.30
2018-01-13T08:14:27.991Z,4.20
2018-01-13T08:15:32.924Z,4.20
2018-01-13T08:16:37.196Z,4.30
2018-01-13T08:17:41.445Z,4.20
2018-01-13T08:18:45.660Z,4.20
2018-01-13T08:19:49.864Z,4.20
2018-01-13T08:20:54.135Z,4.20
2018-01-13T08:21:58.961Z,4.20
2018-01-13T08:23:04.263Z,4.30
2018-01-13T08:24:08.460Z,4.30
2018-01-13T08:25:12.627Z,4.30
2018-01-13T08:26:17.200Z,4.30
2018-01-13T08:27:21.416Z,4.30
2018-01-13T08:28:25.938Z,4.40
2018-01-13T08:29:30.320Z,4.30
2018-01-13T08:30:35.893Z,4.30
2018-01-13T08:31:40.265Z,4.30
2018-01-13T08:32:45.283Z,4.40
2018-01-13T08:33:50.243Z,4.30
2018-01-13T08:34:55.583Z,4.30
2018-01-13T08:36:00.601Z,4.40
2018-01-13T08:37:04.913Z,4.40
2018-01-13T08:38:09.244Z,4.40
2018-01-13T08:39:13.420Z,4.30
2018-01-13T08:40:18.354Z,4.30
2018-01-13T08:41:23.343Z,4.30
2018-01-13T08:42:28.895Z,4.30
2018-01-13T08:43:34.178Z,4.30
2018-01-13T08:44:39.143Z,4.30
2018-01-13T08:45:43.410Z,4.30
2018-01-13T08:46:47.627Z,4.30
2018-01-13T08:47:51.837Z,4.30
2018-01-13T08:48:57.059Z,4.30
2018-01-13T08:50:02.524Z,4.30
2018-01-13T08:51:07.410Z,4.30
2018-01-13T08:52:11.989Z,4.30
2018-01-13T08:53:16.159Z,4.30
2018-01-13T08:54:21.112Z,4.30
2018-01-13T08:55:26.428Z,4.30
2018-01-13T08:56:32.594Z,4.30
2018-01-13T08:57:37.045Z,4.30
2018-01-13T08:58:42.083Z,4.30
2018-01-13T08:59:46.280Z,4.30
2018-01-13T09:00:50.545Z,4.30
2018-01-13T09:01:54.877Z,4.30
2018-01-13T09:03:00.520Z,4.30
2018-01-13T09:04:04.807Z,4.30
2018-01-13T09:05:09.832Z,4.30
2018-01-13T09:06:14.868Z,4.30
2018-01-13T09:07:19.848Z,4.30
2018-01-13T09:08:24.128Z,4.30
2018-01-13T09:09:28.732Z,4.30
2018-01-13T09:10:33.008Z,4.40
2018-01-13T09:11:37.199Z,4.40
2018-01-13T09:12:41.373Z,4.40
2018-01-13T09:13:46.336Z,4.40
2018-01-13T09:14:50.613Z,4.40
2018-01-13T09:15:56.876Z,4.50
2018-01-13T09:17:01.125Z,4.50
2018-01-13T09:18:05.349Z,4.50
2018-01-13T09:19:09.585Z,4.50
2018-01-13T09:20:14.580Z,4.50
2018-01-13T09:21:18.780Z,4.50
2018-01-13T09:22:22.993Z,4.60
2018-01-13T09:23:27.406Z,4.60
2018-01-13T09:24:32.493Z,4.60
2018-01-13T09:25:36.897Z,4.60
2018-01-13T09:26:41.100Z,4.60
2018-01-13T09:27:45.276Z,4.60
2018-01-13T09:28:49.482Z,4.70
2018-01-13T09:29:53.748Z,4.70
2018-01-13T09:30:58.881Z,4.60
2018-01-13T09:32:03.315Z,4.70
2018-01-13T09:33:08.254Z,4.70
2018-01-13T09:34:12.493Z,4.70
2018-01-13T09:35:16.685Z,4.70
2018-01-13T09:36:20.959Z,4.70
2018-01-13T09:37:27.314Z,4.70
2018-01-13T09:38:31.988Z,4.70
2018-01-13T09:39:36.329Z,4.80
2018-01-13T09:40:40.532Z,4.80
2018-01-13T09:41:44.785Z,4.80
2018-01-13T09:42:49.720Z,4.90
2018-01-13T09:43:53.917Z,4.80
2018-01-13T09:45:00.236Z,4.90
2018-01-13T09:46:05.192Z,4.90
2018-01-13T09:47:10.197Z,4.90
2018-01-13T09:48:14.411Z,4.90
2018-01-13T09:49:18.696Z,4.90
2018-01-13T09:50:22.935Z,4.90
2018-01-13T09:51:29.562Z,4.90
2018-01-13T09:52:34.379Z,4.90
2018-01-13T09:53:38.845Z,4.90
2018-01-13T09:54:43.112Z,4.90
2018-01-13T09:55:47.323Z,4.90
2018-01-13T09:56:51.504Z,4.90
2018-01-13T09:57:57.665Z,4.90
2018-01-13T09:59:03.320Z,5.00
2018-01-13T10:00:08.834Z,5.10
2018-01-13T10:01:13.040Z,5.10
2018-01-13T10:02:17.216Z,5.10
2018-01-13T10:03:21.486Z,5.10
2018-01-13T10:04:27.304Z,5.10
2018-01-13T10:05:32.207Z,5.10
2018-01-13T10:06:37.372Z,5.20
2018-01-13T10:07:42.345Z,5.20
2018-01-13T10:08:46.537Z,5.20
2018-01-13T10:09:51.505Z,5.20
2018-01-13T10:10:56.475Z,5.20
2018-01-13T10:12:01.022Z,5.20
2018-01-13T10:13:07.174Z,5.20
2018-01-13T10:14:11.347Z,5.20
2018-01-13T10:15:15.519Z,5.30
2018-01-13T10:16:19.740Z,5.30
2018-01-13T10:17:23.983Z,5.30
2018-01-13T10:18:29.333Z,5.30
2018-01-13T10:19:33.598Z,5.30
2018-01-13T10:20:37.994Z,5.30
2018-01-13T10:21:42.255Z,5.30
2018-01-13T10:22:46.456Z,5.30
2018-01-13T10:23:50.679Z,5.30
2018-01-13T10:24:56.518Z,5.30
2018-01-13T10:26:02.776Z,5.30
2018-01-13T10:27:07.960Z,5.40
2018-01-13T10:28:12.151Z,5.40
2018-01-13T10:29:16.351Z,5.40
2018-01-13T10:30:20.552Z,5.40
2018-01-13T10:31:25.576Z,5.40
2018-01-13T10:32:30.444Z,5.40
2018-01-13T10:33:35.055Z,5.40
2018-01-13T10:34:39.319Z,5.40
2018-01-13T10:35:43.553Z,5.40
2018-01-13T10:36:48.145Z,5.40
2018-01-13T10:37:52.361Z,5.40
2018-01-13T10:38:56.820Z,5.50
2018-01-13T10:40:03.049Z,5.50
2018-01-13T10:41:08.304Z,5.50
2018-01-13T10:42:14.294Z,5.60
2018-01-13T10:43:18.533Z,5.60
2018-01-13T10:44:22.818Z,5.60
2018-01-13T10:45:27.417Z,5.60
2018-01-13T10:46:32.224Z,5.60
2018-01-13T10:47:37.469Z,5.60
2018-01-13T10:48:42.449Z,5.70
2018-01-13T10:49:46.671Z,5.70
2018-01-13T10:50:50.881Z,5.70
2018-01-13T10:51:56.570Z,5.70
2018-01-13T10:53:02.731Z,5.70
2018-01-13T10:54:07.614Z,5.70
2018-01-13T10:55:11.820Z,5.70
2018-01-13T10:56:16.029Z,5.80
2018-01-13T10:57:20.263Z,5.80
2018-01-13T10:58:24.442Z,5.80
2018-01-13T10:59:29.716Z,5.70
2018-01-13T11:00:34.072Z,5.80
2018-01-13T11:01:39.500Z,5.80
2018-01-13T11:02:43.772Z,5.80
2018-01-13T11:03:48.113Z,5.80
2018-01-13T11:04:53.083Z,5.90
2018-01-13T11:05:59.507Z,5.90
2018-01-13T11:07:05.390Z,6.00
2018-01-13T11:08:09.689Z,6.00
2018-01-13T11:09:13.900Z,6.00
2018-01-13T11:10:18.107Z,6.10
2018-01-13T11:11:22.283Z,6.00
2018-01-13T11:12:27.553Z,6.00
2018-01-13T11:13:33.115Z,6.10
2018-01-13T11:14:37.422Z,6.10
2018-01-13T11:15:41.622Z,6.10
2018-01-13T11:16:45.823Z,6.20
2018-01-13T11:17:50.837Z,6.10
2018-01-13T11:18:56.792Z,6.10
2018-01-13T11:20:02.367Z,6.10
2018-01-13T11:21:06.907Z,6.10
2018-01-13T11:22:11.138Z,6.10
2018-01-13T11:23:16.112Z,6.10
2018-01-13T11:24:20.401Z,6.10
2018-01-13T11:25:26.596Z,6.20
2018-01-13T11:26:35.075Z,6.10
2018-01-13T11:27:39.393Z,6.20
2018-01-13T11:28:44.359Z,6.20
2018-01-13T11:29:48.594Z,6.20
2018-01-13T11:30:52.858Z,6.30
2018-01-13T11:31:57.810Z,6.30
2018-01-13T11:33:03.936Z,6.40
2018-01-13T11:34:08.356Z,6.40
2018-01-13T11:35:12.568Z,6.40
2018-01-13T11:36:16.958Z,6.40
2018-01-13T11:37:21.126Z,6.40
2018-01-13T11:38:26.697Z,6.30
2018-01-13T11:39:32.326Z,6.30
2018-01-13T11:40:37.745Z,6.30
2018-01-13T11:41:41.959Z,6.30
2018-01-13T11:42:46.148Z,6.30
2018-01-13T11:43:50.363Z,6.30
2018-01-13T11:44:54.580Z,6.30
2018-01-13T11:46:02.613Z,6.30
2018-01-13T11:47:07.034Z,6.20
2018-01-13T11:48:11.251Z,6.20
2018-01-13T11:49:15.599Z,6.20
2018-01-13T11:50:19.810Z,6.20
2018-01-13T11:51:24.021Z,6.20
2018-01-13T11:52:31.517Z,6.30
2018-01-13T11:53:36.463Z,6.30
2018-01-13T11:54:40.658Z,6.30
2018-01-13T11:55:45.057Z,6.30
2018-01-13T11:56:49.483Z,6.30
2018-01-13T11:57:53.729Z,6.40
2018-01-13T11:58:59.836Z,6.30
2018-01-13T12:00:04.374Z,6.30
2018-01-13T12:01:08.869Z,6.30
2018-01-13T12:02:13.909Z,6.30
2018-01-13T12:03:18.183Z,6.20
2018-01-13T12:04:22.449Z,6.20
2018-01-13T12:05:28.108Z,6.30
2018-01-13T12:06:33.638Z,6.40
2018-01-13T12:07:38.617Z,6.40
2018-01-13T12:08:44.380Z,6.40
2018-01-13T12:09:49.513Z,6.50
2018-01-13T12:10:53.764Z,6.40
2018-01-13T12:11:58.782Z,6.40
2018-01-13T12:13:03.408Z,6.40
2018-01-13T12:14:07.972Z,6.50
2018-01-13T12:15:12.200Z,6.50
2018-01-13T12:16:16.512Z,6.50
2018-01-13T12:17:21.623Z,6.60
2018-01-13T12:18:26.322Z,6.50
2018-01-13T12:19:31.771Z,6.50
2018-01-13T12:20:36.964Z,6.50
2018-01-13T12:21:41.228Z,6.50
2018-01-13T12:22:45.444Z,6.50
2018-01-13T12:23:51.635Z,6.50
2018-01-13T12:25:04.387Z,6.50
2018-01-13T12:26:09.093Z,6.50
2018-01-13T12:27:13.320Z,6.50
2018-01-13T12:28:17.553Z,6.50
2018-01-13T12:29:21.734Z,6.40
2018-01-13T12:30:27.766Z,6.50
2018-01-13T12:31:32.366Z,6.40
2018-01-13T12:32:37.529Z,6.40
2018-01-13T12:33:41.800Z,6.40
2018-01-13T12:34:45.997Z,6.50
2018-01-13T12:35:50.199Z,6.50
2018-01-13T12:36:54.579Z,6.50
2018-01-13T12:38:00.028Z,6.50
2018-01-13T12:39:04.913Z,6.50
2018-01-13T12:40:09.917Z,6.40
2018-01-13T12:41:14.520Z,6.40
2018-01-13T12:42:18.729Z,6.40
2018-01-13T12:43:22.932Z,6.40
2018-01-13T12:44:27.849Z,6.50
2018-01-13T12:45:32.217Z,6.50
2018-01-13T12:46:37.287Z,6.50
2018-01-13T12:47:41.506Z,6.40
2018-01-13T12:48:45.701Z,6.50
2018-01-13T12:49:50.055Z,6.50
2018-01-13T12:50:54.293Z,6.60
2018-01-13T12:51:59.179Z,6.50
2018-01-13T12:53:03.934Z,6.50
2018-01-13T12:54:08.229Z,6.50
2018-01-13T12:55:12.408Z,6.60
2018-01-13T12:56:16.636Z,6.50
2018-01-13T12:57:20.891Z,6.50
2018-01-13T12:58:26.708Z,6.50
2018-01-13T12:59:32.534Z,6.50
2018-01-13T13:00:36.820Z,6.50
2018-01-13T13:01:41.077Z,6.50
2018-01-13T13:02:45.320Z,6.50
2018-01-13T13:03:49.532Z,6.50
2018-01-13T13:04:54.724Z,6.50
2018-01-13T13:06:00.357Z,6.40
2018-01-13T13:07:04.854Z,6.40
2018-01-13T13:08:09.550Z,6.40
2018-01-13T13:09:13.724Z,6.50
2018-01-13T13:10:17.894Z,6.50
2018-01-13T13:11:22.832Z,6.50
2018-01-13T13:12:28.142Z,6.40
2018-01-13T13:13:32.691Z,6.50
2018-01-13T13:14:37.533Z,6.50
2018-01-13T13:15:41.758Z,6.50
2018-01-13T13:16:45.935Z,6.50
2018-01-13T13:17:50.974Z,6.40
2018-01-13T13:18:55.473Z,6.50
2018-01-13T13:20:02.846Z,6.40
2018-01-13T13:21:08.317Z,6.40
2018-01-13T13:22:12.488Z,6.40
2018-01-13T13:23:16.659Z,6.40
2018-01-13T13:24:21.034Z,6.40
2018-01-13T13:25:27.100Z,6.30
2018-01-13T13:26:31.761Z,6.30
2018-01-13T13:27:36.848Z,6.30
2018-01-13T13:28:41.091Z,6.20
2018-01-13T13:29:45.267Z,6.20
2018-01-13T13:30:50.343Z,6.30
2018-01-13T13:31:54.644Z,6.20
2018-01-13T13:32:59.755Z,6.20
2018-01-13T13:34:04.762Z,6.30
2018-01-13T13:35:09.814Z,6.30
2018-01-13T13:36:13.996Z,6.30
2018-01-13T13:37:18.191Z,6.20
2018-01-13T13:38:22.367Z,6.30
2018-01-13T13:39:26.773Z,6.30
2018-01-13T13:40:31.960Z,6.20
2018-01-13T13:41:37.015Z,6.20
2018-01-13T13:42:41.987Z,6.10
2018-01-13T13:43:46.604Z,6.10
2018-01-13T13:44:50.865Z,6.10
2018-01-13T13:45:56.628Z,6.10
2018-01-13T13:47:00.921Z,6.10
2018-01-13T13:48:05.769Z,6.10
2018-01-13T13:49:10.153Z,6.10
2018-01-13T13:50:14.328Z,6.10
2018-01-13T13:51:18.555Z,6.10
2018-01-13T13:52:22.760Z,6.20
2018-01-13T13:53:28.947Z,6.20
2018-01-13T13:54:33.505Z,6.10
2018-01-13T13:55:38.787Z,6.20
2018-01-13T13:56:43.086Z,6.20
2018-01-13T13:57:47.288Z,6.20
2018-01-13T13:58:51.545Z,6.10
2018-01-13T13:59:56.996Z,6.20
2018-01-13T14:01:28.200Z,6.10
2018-01-13T14:02:06.277Z,6.10
2018-01-13T14:03:10.530Z,6.20
2018-01-13T14:04:14.786Z,6.10
2018-01-13T14:05:18.993Z,6.10
2018-01-13T14:06:23.169Z,6.10
2018-01-13T14:07:28.283Z,6.10
2018-01-13T14:08:32.735Z,6.20
2018-01-13T14:09:37.761Z,6.10
2018-01-13T14:10:41.954Z,6.20
2018-01-13T14:11:46.120Z,6.10
2018-01-13T14:12:50.352Z,6.10
2018-01-13T14:13:54.613Z,6.10
2018-01-13T14:15:00.027Z,6.10
2018-01-13T14:16:04.741Z,6.10
2018-01-13T14:17:09.259Z,6.10
2018-01-13T14:18:14.228Z,6.10
2018-01-13T14:19:18.451Z,6.10
2018-01-13T14:20:22.630Z,6.10
2018-01-13T14:21:28.362Z,6.10